Time;durP1;ratioP1;P1;durP2;ratioP2;P2;SDS_P1;SDS_P2;PMS_P1;PMS_P2;Temp;Humidity;BMP_temperature;BMP_pressure;BME280_temperature;BME280_humidity;BME280_pressure;Samples;Min_cycle;Max_cycle;Signal;HPM_P1;HPM_P2
2023/05/16 00:02:17;;;;;;;6.30;2.00;;;12.60;63.90;;;;;;5011173;28;20060;-66
2023/05/16 00:04:43;;;;;;;10.52;2.40;;;12.60;64.00;;;;;;5012164;28;20045;-66
2023/05/16 00:07:08;;;;;;;8.23;1.95;;;12.50;64.10;;;;;;5002460;28;20042;-66
2023/05/16 00:09:34;;;;;;;7.97;2.20;;;12.50;64.20;;;;;;4994597;28;20049;-67
2023/05/16 00:12:00;;;;;;;6.35;1.70;;;12.50;64.30;;;;;;4995161;28;20045;-66
2023/05/16 00:14:26;;;;;;;9.57;2.38;;;12.50;64.30;;;;;;5010190;28;20046;-66
2023/05/16 00:16:57;;;;;;;8.15;1.80;;;12.50;64.30;;;;;;5002220;28;20045;-66
2023/05/16 00:19:23;;;;;;;11.27;2.33;;;12.50;64.30;;;;;;5011118;28;20042;-66
2023/05/16 00:21:48;;;;;;;9.85;2.35;;;12.40;64.20;;;;;;5010729;28;20445;-66
2023/05/16 00:24:14;;;;;;;10.65;1.80;;;12.40;64.30;;;;;;5010780;28;20154;-66
2023/05/16 00:26:40;;;;;;;9.93;2.47;;;12.40;64.30;;;;;;5017726;28;20090;-66
2023/05/16 00:29:06;;;;;;;11.02;2.35;;;12.30;64.10;;;;;;5012416;28;20033;-66
2023/05/16 00:31:32;;;;;;;10.18;1.80;;;12.30;64.10;;;;;;5014057;28;20476;-66
2023/05/16 00:33:57;;;;;;;8.68;2.20;;;12.30;64.00;;;;;;5027206;28;20050;-66
2023/05/16 00:36:23;;;;;;;11.23;1.75;;;12.30;64.10;;;;;;5015308;28;20056;-66
2023/05/16 00:38:49;;;;;;;9.88;1.73;;;12.30;64.10;;;;;;5029964;28;20056;-66
2023/05/16 00:41:16;;;;;;;9.65;1.85;;;12.30;64.50;;;;;;5030250;28;20041;-66
2023/05/16 00:43:42;;;;;;;11.88;2.65;;;12.20;64.10;;;;;;5029255;28;20052;-66
2023/05/16 00:46:08;;;;;;;11.20;2.20;;;12.20;64.10;;;;;;5015211;28;20033;-66
2023/05/16 00:48:33;;;;;;;7.85;2.35;;;12.20;64.00;;;;;;5009991;28;20477;-66
2023/05/16 00:51:00;;;;;;;8.00;2.17;;;12.20;64.10;;;;;;5030345;28;20033;-66
2023/05/16 00:53:26;;;;;;;9.07;2.35;;;12.20;64.10;;;;;;5028470;28;20072;-66
2023/05/16 00:55:52;;;;;;;8.85;1.92;;;12.10;64.00;;;;;;5028917;28;20081;-66
2023/05/16 00:58:20;;;;;;;9.32;1.60;;;12.10;63.90;;;;;;5011600;28;20513;-66
2023/05/16 01:00:46;;;;;;;8.05;1.50;;;12.10;63.90;;;;;;5017981;28;20087;-66
2023/05/16 01:03:12;;;;;;;7.28;1.60;;;12.10;63.80;;;;;;5013258;28;20037;-66
2023/05/16 01:05:38;;;;;;;7.28;2.35;;;12.00;63.50;;;;;;5020853;28;20382;-66
2023/05/16 01:08:03;;;;;;;11.00;1.90;;;12.00;63.60;;;;;;5009642;28;20037;-66
2023/05/16 01:10:51;;;;;;;7.60;1.52;;;12.00;63.50;;;;;;5030215;28;20045;-66
2023/05/16 01:13:30;;;;;;;9.27;2.15;;;12.00;63.50;;;;;;5008523;28;20056;-66
2023/05/16 01:16:24;;;;;;;7.80;1.73;;;12.00;63.50;;;;;;5019550;28;20053;-66
2023/05/16 01:19:01;;;;;;;10.03;2.20;;;11.90;63.50;;;;;;5005836;28;20068;-66
2023/05/16 01:21:58;;;;;;;7.60;1.70;;;11.90;63.60;;;;;;5010026;28;20042;-66
2023/05/16 01:24:33;;;;;;;8.23;1.70;;;11.90;63.70;;;;;;5010359;28;20053;-66
2023/05/16 01:27:00;;;;;;;8.02;2.22;;;11.80;63.80;;;;;;5004225;28;20040;-66
2023/05/16 01:29:26;;;;;;;8.38;1.85;;;11.80;63.80;;;;;;5029937;28;20053;-66
2023/05/16 01:31:52;;;;;;;7.75;1.40;;;11.80;63.80;;;;;;5029960;28;20041;-66
2023/05/16 01:34:17;;;;;;;9.27;2.25;;;11.80;63.90;;;;;;5000550;28;20041;-66
2023/05/16 01:36:46;;;;;;;7.72;1.70;;;11.80;64.00;;;;;;5018162;28;20137;-66
2023/05/16 01:39:40;;;;;;;11.77;1.80;;;11.70;64.00;;;;;;5015431;28;20508;-66
2023/05/16 01:42:13;;;;;;;7.75;1.58;;;11.70;64.10;;;;;;5013908;28;20033;-66
2023/05/16 01:44:53;;;;;;;9.05;1.80;;;11.70;64.10;;;;;;5023817;28;20520;-66
2023/05/16 01:47:24;;;;;;;6.75;1.63;;;11.70;64.10;;;;;;5025571;28;20431;-66
2023/05/16 01:50:11;;;;;;;7.72;1.50;;;11.70;64.00;;;;;;5033145;28;20052;-66
2023/05/16 01:52:44;;;;;;;8.57;1.88;;;11.70;64.00;;;;;;5014861;28;20057;-66
2023/05/16 01:55:13;;;;;;;9.32;1.20;;;11.70;64.10;;;;;;5014340;28;20041;-66
2023/05/16 01:57:41;;;;;;;7.30;1.42;;;11.70;64.10;;;;;;5017579;28;20111;-66
2023/05/16 02:00:07;;;;;;;7.53;1.77;;;11.70;64.20;;;;;;5013239;28;20113;-66
2023/05/16 02:02:33;;;;;;;6.35;1.40;;;11.70;64.10;;;;;;4996542;28;20120;-67
2023/05/16 02:04:59;;;;;;;10.10;1.60;;;11.60;64.00;;;;;;5022361;28;20116;-66
2023/05/16 02:07:25;;;;;;;6.75;1.92;;;11.60;64.00;;;;;;5031532;28;20038;-67
2023/05/16 02:09:50;;;;;;;7.28;1.85;;;11.60;64.00;;;;;;5016426;28;20042;-66
2023/05/16 02:12:16;;;;;;;7.20;1.88;;;11.60;64.00;;;;;;5032295;28;20485;-66
2023/05/16 02:14:42;;;;;;;7.40;1.70;;;11.60;64.10;;;;;;5020411;28;20144;-66
2023/05/16 02:17:08;;;;;;;7.30;1.83;;;11.60;64.00;;;;;;5014767;28;20128;-67
2023/05/16 02:19:33;;;;;;;5.38;1.20;;;11.60;64.00;;;;;;5020145;28;20041;-66
2023/05/16 02:21:59;;;;;;;6.43;1.85;;;11.50;64.00;;;;;;5015402;28;20129;-66
2023/05/16 02:24:25;;;;;;;3.20;1.17;;;11.50;64.10;;;;;;4996392;28;20082;-66
2023/05/16 02:26:51;;;;;;;7.20;1.92;;;11.50;64.10;;;;;;5027839;28;20091;-66
2023/05/16 02:29:17;;;;;;;4.93;1.60;;;11.50;64.10;;;;;;5004763;28;20042;-66
2023/05/16 02:31:43;;;;;;;7.60;1.48;;;11.50;64.10;;;;;;4996467;28;20599;-66
2023/05/16 02:34:09;;;;;;;6.32;1.40;;;11.50;64.10;;;;;;5012106;28;20045;-66
2023/05/16 02:36:35;;;;;;;8.35;1.60;;;11.40;64.10;;;;;;5019047;28;20050;-66
2023/05/16 02:39:02;;;;;;;5.22;1.52;;;11.40;64.10;;;;;;5007248;28;20049;-66
2023/05/16 02:41:29;;;;;;;6.97;1.80;;;11.40;64.50;;;;;;5032262;28;20099;-66
2023/05/16 02:43:54;;;;;;;7.65;1.30;;;11.40;64.10;;;;;;5027076;28;20048;-66
2023/05/16 02:46:25;;;;;;;7.72;1.48;;;11.40;64.10;;;;;;5023478;28;20033;-67
2023/05/16 02:48:51;;;;;;;7.72;1.25;;;11.40;64.20;;;;;;5031642;28;20124;-66
2023/05/16 02:51:19;;;;;;;5.60;1.30;;;11.40;64.20;;;;;;5031936;28;20042;-66
2023/05/16 02:53:45;;;;;;;5.80;1.40;;;11.40;64.20;;;;;;5025012;28;20064;-66
2023/05/16 02:56:10;;;;;;;7.57;1.60;;;11.30;64.10;;;;;;5020782;28;20464;-66
2023/05/16 02:58:36;;;;;;;4.13;1.05;;;11.30;64.20;;;;;;5031907;28;20049;-65
2023/05/16 03:01:02;;;;;;;7.43;1.80;;;11.30;64.20;;;;;;5026109;28;20510;-66
2023/05/16 03:03:28;;;;;;;8.95;2.40;;;11.30;64.20;;;;;;5012309;28;20045;-66
2023/05/16 03:05:54;;;;;;;4.35;1.33;;;11.30;64.30;;;;;;5015767;28;20537;-66
2023/05/16 03:08:20;;;;;;;4.93;1.05;;;11.30;64.30;;;;;;4995845;28;20045;-66
2023/05/16 03:10:46;;;;;;;5.88;1.67;;;11.30;64.30;;;;;;5012391;28;20527;-66
2023/05/16 03:13:11;;;;;;;9.00;2.05;;;11.20;64.20;;;;;;4997565;28;20042;-66
2023/05/16 03:15:37;;;;;;;4.70;1.05;;;11.20;64.20;;;;;;5030594;28;20650;-66
2023/05/16 03:18:03;;;;;;;8.50;1.40;;;11.20;64.20;;;;;;5031615;28;20128;-66
2023/05/16 03:20:28;;;;;;;4.97;1.30;;;11.20;64.30;;;;;;5023679;28;20050;-65
2023/05/16 03:22:54;;;;;;;6.65;1.25;;;11.20;64.20;;;;;;5013139;28;20033;-66
2023/05/16 03:25:20;;;;;;;7.40;1.98;;;11.20;64.30;;;;;;5018390;28;20116;-66
2023/05/16 03:27:46;;;;;;;7.50;1.33;;;11.10;64.20;;;;;;5019056;28;20124;-66
2023/05/16 03:30:12;;;;;;;5.88;1.30;;;11.10;64.20;;;;;;5024645;28;20125;-66
2023/05/16 03:32:38;;;;;;;6.53;1.20;;;11.10;64.30;;;;;;5030890;28;20473;-65
2023/05/16 03:35:04;;;;;;;4.03;1.08;;;11.00;64.30;;;;;;5026691;28;20120;-65
2023/05/16 03:37:30;;;;;;;4.25;1.30;;;11.10;64.30;;;;;;5011924;28;20172;-66
2023/05/16 03:39:56;;;;;;;3.83;1.15;;;11.10;64.40;;;;;;5011660;28;20046;-66
2023/05/16 03:42:22;;;;;;;5.40;1.00;;;11.00;64.40;;;;;;4995270;28;20127;-66
2023/05/16 03:44:47;;;;;;;6.88;1.33;;;11.00;64.40;;;;;;5009866;28;20041;-66
2023/05/16 03:47:13;;;;;;;7.75;1.63;;;11.00;64.40;;;;;;4995286;28;20133;-66
2023/05/16 03:49:39;;;;;;;7.57;1.58;;;11.00;64.50;;;;;;5011575;28;20099;-66
2023/05/16 03:52:05;;;;;;;7.63;1.70;;;10.90;64.40;;;;;;5011602;28;20054;-66
2023/05/16 03:54:32;;;;;;;6.93;1.55;;;11.00;64.50;;;;;;5023219;28;20154;-65
2023/05/16 03:56:57;;;;;;;9.05;1.30;;;10.90;64.50;;;;;;5013996;28;20052;-65
2023/05/16 03:59:23;;;;;;;7.22;1.45;;;10.90;64.60;;;;;;5031201;28;20120;-65
2023/05/16 04:01:49;;;;;;;4.75;1.35;;;10.90;64.60;;;;;;5030066;28;20048;-65
2023/05/16 04:04:15;;;;;;;5.68;1.20;;;10.90;64.60;;;;;;5008397;28;20034;-66
2023/05/16 04:06:40;;;;;;;4.90;1.40;;;10.90;64.60;;;;;;5028374;28;20052;-66
2023/05/16 04:09:06;;;;;;;4.68;1.23;;;10.80;64.60;;;;;;5031109;28;20099;-66
2023/05/16 04:11:33;;;;;;;8.07;1.67;;;10.80;64.60;;;;;;5030585;28;20136;-66
2023/05/16 04:14:00;;;;;;;6.88;2.40;;;10.80;64.60;;;;;;5029878;28;20085;-66
2023/05/16 04:16:26;;;;;;;6.55;1.25;;;10.80;64.70;;;;;;5026797;28;20054;-66
2023/05/16 04:18:52;;;;;;;7.03;1.40;;;10.80;64.70;;;;;;5029737;28;20099;-66
2023/05/16 04:21:18;;;;;;;8.95;2.00;;;10.80;64.80;;;;;;5030714;28;20400;-66
2023/05/16 04:23:43;;;;;;;5.10;1.45;;;10.80;64.80;;;;;;5030146;28;20049;-66
2023/05/16 04:26:09;;;;;;;6.60;1.30;;;10.80;64.80;;;;;;5002032;28;20212;-66
2023/05/16 04:28:35;;;;;;;6.82;1.52;;;10.80;64.80;;;;;;4994856;28;20049;-66
2023/05/16 04:31:01;;;;;;;6.82;1.77;;;10.80;64.90;;;;;;5012888;28;20374;-66
2023/05/16 04:33:27;;;;;;;3.80;1.05;;;10.70;64.90;;;;;;5030228;28;20041;-66
2023/05/16 04:35:53;;;;;;;5.38;1.63;;;10.70;65.00;;;;;;5026721;28;20052;-66
2023/05/16 04:38:19;;;;;;;6.10;1.70;;;10.70;65.10;;;;;;5014134;28;20099;-66
2023/05/16 04:40:45;;;;;;;5.20;1.70;;;10.70;65.20;;;;;;5030561;28;20049;-67
2023/05/16 04:43:11;;;;;;;9.00;1.73;;;10.70;65.30;;;;;;5016064;28;20051;-66
2023/05/16 04:45:37;;;;;;;4.63;1.42;;;10.70;65.40;;;;;;5021946;28;20053;-66
2023/05/16 04:48:02;;;;;;;6.60;1.60;;;10.70;65.40;;;;;;5012139;28;20052;-66
2023/05/16 04:50:28;;;;;;;5.00;1.17;;;10.70;65.50;;;;;;5011991;28;20393;-68
2023/05/16 04:52:54;;;;;;;9.93;2.17;;;10.70;65.70;;;;;;5016435;28;20046;-66
2023/05/16 04:55:20;;;;;;;7.18;1.95;;;10.70;65.80;;;;;;5029539;28;20055;-66
2023/05/16 04:57:45;;;;;;;5.53;1.85;;;10.70;65.90;;;;;;5031031;28;20136;-66
2023/05/16 05:00:12;;;;;;;7.70;2.20;;;10.70;66.00;;;;;;5019456;28;20045;-66
2023/05/16 05:02:38;;;;;;;8.20;2.00;;;10.70;66.10;;;;;;5027096;28;20045;-67
2023/05/16 05:05:05;;;;;;;10.52;1.85;;;10.70;66.30;;;;;;4998261;28;20076;-66
2023/05/16 05:07:32;;;;;;;8.55;1.98;;;10.70;66.90;;;;;;5031361;28;20046;-66
2023/05/16 05:09:57;;;;;;;6.63;1.50;;;10.80;67.40;;;;;;5031512;28;20401;-67
2023/05/16 05:12:24;;;;;;;8.70;2.20;;;10.90;67.60;;;;;;5020117;28;20041;-67
2023/05/16 05:14:50;;;;;;;3.97;1.42;;;11.00;67.40;;;;;;5026301;28;20377;-67
2023/05/16 05:17:16;;;;;;;12.57;3.13;;;11.20;67.40;;;;;;5016885;28;20041;-67
2023/05/16 05:19:42;;;;;;;10.68;2.05;;;11.40;67.70;;;;;;5021984;28;20450;-67
2023/05/16 05:22:08;;;;;;;4.18;1.42;;;11.60;66.80;;;;;;5048372;28;20077;-67
2023/05/16 05:24:33;;;;;;;7.18;2.00;;;11.80;66.40;;;;;;5051608;28;20046;-67
2023/05/16 05:26:59;;;;;;;10.20;2.58;;;11.90;66.10;;;;;;5027925;28;20042;-67
2023/05/16 05:29:26;;;;;;;9.20;1.90;;;12.10;65.90;;;;;;5026266;28;20034;-67
2023/05/16 05:31:51;;;;;;;8.05;2.05;;;12.40;65.30;;;;;;5025069;28;20718;-67
2023/05/16 05:34:17;;;;;;;7.75;2.35;;;12.60;64.90;;;;;;5029683;28;20049;-67
2023/05/16 05:36:43;;;;;;;7.90;1.65;;;12.80;64.60;;;;;;5029155;28;20489;-67
2023/05/16 05:39:09;;;;;;;8.38;1.50;;;13.10;64.00;;;;;;4980517;28;20050;-67
2023/05/16 05:41:36;;;;;;;6.95;1.70;;;13.40;63.10;;;;;;5009955;28;20037;-67
2023/05/16 05:44:01;;;;;;;7.60;1.83;;;13.70;62.50;;;;;;5019303;28;20477;-67
2023/05/16 05:46:27;;;;;;;6.20;1.70;;;14.00;61.80;;;;;;5047841;28;20093;-67
2023/05/16 05:48:53;;;;;;;7.88;2.30;;;14.30;60.80;;;;;;5036124;28;20144;-67
2023/05/16 05:51:19;;;;;;;7.80;1.60;;;14.60;59.90;;;;;;5016488;28;20488;-67
2023/05/16 05:53:45;;;;;;;8.00;1.67;;;15.00;59.10;;;;;;5023621;28;20045;-67
2023/05/16 05:56:11;;;;;;;7.85;1.90;;;15.30;58.30;;;;;;5017501;28;20049;-67
2023/05/16 05:58:37;;;;;;;5.88;1.75;;;15.60;57.60;;;;;;5010271;28;20068;-67
2023/05/16 06:01:03;;;;;;;6.68;2.15;;;15.90;56.60;;;;;;5030125;28;20033;-67
2023/05/16 06:03:29;;;;;;;7.57;1.95;;;16.20;56.30;;;;;;5008226;28;20041;-67
2023/05/16 06:05:54;;;;;;;7.18;2.03;;;16.60;55.90;;;;;;5018371;28;20425;-67
2023/05/16 06:08:20;;;;;;;9.60;2.08;;;16.90;54.70;;;;;;5034324;28;20124;-67
2023/05/16 06:10:46;;;;;;;9.75;1.98;;;17.10;53.80;;;;;;5034272;28;20076;-67
2023/05/16 06:13:12;;;;;;;9.88;2.10;;;17.40;53.40;;;;;;5034216;28;20049;-67
2023/05/16 06:15:38;;;;;;;7.63;1.63;;;17.60;53.00;;;;;;5034121;28;20045;-67
2023/05/16 06:18:03;;;;;;;7.82;1.83;;;17.70;52.30;;;;;;5022568;28;20048;-67
2023/05/16 06:20:29;;;;;;;5.68;1.55;;;17.90;51.50;;;;;;4998635;28;20084;-67
2023/05/16 06:22:55;;;;;;;8.00;2.03;;;18.10;51.10;;;;;;5014332;28;20038;-67
2023/05/16 06:25:21;;;;;;;4.47;1.20;;;18.10;50.30;;;;;;5013504;28;20038;-67
2023/05/16 06:27:46;;;;;;;5.30;1.40;;;18.20;49.40;;;;;;5014110;28;20452;-68
2023/05/16 06:30:12;;;;;;;6.70;1.55;;;18.30;49.00;;;;;;5014542;28;20117;-67
2023/05/16 06:32:39;;;;;;;6.68;1.20;;;18.40;49.10;;;;;;5016635;28;20492;-67
2023/05/16 06:35:06;;;;;;;8.77;1.27;;;18.50;48.70;;;;;;5013767;28;20066;-66
2023/05/16 06:37:31;;;;;;;7.38;1.50;;;18.60;48.80;;;;;;5013804;28;20081;-65
2023/05/16 06:39:58;;;;;;;4.68;1.13;;;18.70;47.80;;;;;;5013914;28;20088;-66
2023/05/16 06:42:23;;;;;;;4.55;1.05;;;18.80;46.90;;;;;;5014069;28;20542;-66
2023/05/16 06:44:49;;;;;;;6.22;1.55;;;18.80;47.00;;;;;;5014138;28;20125;-66
2023/05/16 06:47:15;;;;;;;5.55;1.38;;;18.80;46.60;;;;;;5033132;28;20047;-66
2023/05/16 06:49:41;;;;;;;6.40;1.38;;;18.80;46.40;;;;;;5017292;28;20435;-66
2023/05/16 06:52:07;;;;;;;4.20;1.30;;;18.80;45.80;;;;;;5017455;28;20053;-66
2023/05/16 06:54:32;;;;;;;6.28;1.10;;;18.70;45.50;;;;;;5033535;28;20051;-66
2023/05/16 06:56:58;;;;;;;4.22;1.00;;;18.50;45.20;;;;;;5016877;28;20070;-66
2023/05/16 06:59:24;;;;;;;4.00;1.10;;;18.40;46.20;;;;;;5029972;28;20382;-66
2023/05/16 07:01:50;;;;;;;6.28;1.40;;;18.30;46.30;;;;;;5013557;28;20041;-66
2023/05/16 07:04:15;;;;;;;7.72;1.55;;;18.30;46.30;;;;;;5013540;28;20121;-66
2023/05/16 07:06:41;;;;;;;5.00;1.40;;;18.20;47.30;;;;;;5013396;28;20034;-66
2023/05/16 07:09:07;;;;;;;4.68;1.10;;;18.40;47.80;;;;;;5013348;28;20053;-66
2023/05/16 07:11:32;;;;;;;4.80;1.17;;;18.50;48.00;;;;;;5013880;28;20470;-66
2023/05/16 07:13:58;;;;;;;5.32;1.38;;;18.60;47.20;;;;;;5016333;28;20120;-66
2023/05/16 07:16:27;;;;;;;4.57;0.90;;;18.60;47.10;;;;;;5016498;28;20053;-66
2023/05/16 07:18:53;;;;;;;5.22;0.98;;;18.70;46.60;;;;;;5032785;28;20050;-66
2023/05/16 07:21:19;;;;;;;6.93;1.00;;;18.70;46.80;;;;;;5016360;28;20044;-66
2023/05/16 07:23:45;;;;;;;6.43;1.33;;;18.70;46.60;;;;;;5032098;28;20033;-66
2023/05/16 07:26:10;;;;;;;5.13;1.30;;;18.70;45.70;;;;;;5000110;28;20042;-66
2023/05/16 07:28:36;;;;;;;4.63;1.08;;;18.60;45.10;;;;;;5021565;28;20041;-66
2023/05/16 07:31:02;;;;;;;7.03;1.42;;;18.60;44.90;;;;;;4996604;28;20485;-66
2023/05/16 07:33:27;;;;;;;4.80;1.00;;;18.60;45.50;;;;;;4996499;28;20050;-66
2023/05/16 07:35:53;;;;;;;6.45;1.67;;;18.70;46.20;;;;;;5011827;28;20058;-66
2023/05/16 07:38:20;;;;;;;4.82;1.05;;;18.80;45.90;;;;;;5019443;28;20504;-66
2023/05/16 07:40:46;;;;;;;5.97;1.20;;;18.90;45.00;;;;;;5032464;28;20049;-66
2023/05/16 07:43:12;;;;;;;4.65;1.38;;;19.00;45.00;;;;;;5032768;28;20038;-66
2023/05/16 07:45:37;;;;;;;5.07;1.13;;;18.90;45.00;;;;;;5016055;28;20607;-66
2023/05/16 07:48:03;;;;;;;5.57;1.30;;;19.00;45.50;;;;;;5032696;28;20048;-66
2023/05/16 07:50:29;;;;;;;4.75;1.65;;;19.10;45.50;;;;;;5032168;28;20492;-66
2023/05/16 07:52:55;;;;;;;5.22;1.45;;;19.30;45.20;;;;;;5021852;28;20056;-66
2023/05/16 07:55:23;;;;;;;3.90;1.00;;;19.40;44.60;;;;;;5012818;28;20072;-66
2023/05/16 07:57:49;;;;;;;3.40;1.25;;;19.60;44.20;;;;;;5012449;28;20046;-66
2023/05/16 08:00:16;;;;;;;6.35;1.40;;;19.70;43.60;;;;;;5012476;28;20482;-66
2023/05/16 08:02:42;;;;;;;6.30;1.83;;;19.90;42.10;;;;;;5012497;28;20493;-66
2023/05/16 08:05:08;;;;;;;5.30;1.40;;;19.90;41.70;;;;;;5031681;28;20049;-66
2023/05/16 08:07:34;;;;;;;5.93;1.38;;;20.00;41.10;;;;;;5031421;28;20049;-66
2023/05/16 08:10:00;;;;;;;5.30;1.20;;;20.00;41.30;;;;;;5032325;28;20041;-67
2023/05/16 08:12:29;;;;;;;9.45;2.13;;;20.10;41.50;;;;;;5032005;28;20510;-66
2023/05/16 08:14:55;;;;;;;5.60;1.33;;;20.20;40.70;;;;;;5032237;28;20053;-66
2023/05/16 08:17:21;;;;;;;4.30;1.40;;;20.30;40.60;;;;;;5011729;28;20057;-66
2023/05/16 08:19:47;;;;;;;5.85;1.67;;;20.40;40.50;;;;;;5020128;28;20050;-66
2023/05/16 08:22:13;;;;;;;4.03;0.93;;;20.50;40.00;;;;;;5029876;28;20048;-66
2023/05/16 08:24:38;;;;;;;3.85;1.00;;;20.60;39.70;;;;;;5013423;28;20042;-66
2023/05/16 08:27:04;;;;;;;4.80;1.33;;;20.60;40.00;;;;;;5039570;28;20048;-66
2023/05/16 08:29:30;;;;;;;8.52;2.17;;;20.60;39.00;;;;;;5051633;28;20119;-66
2023/05/16 08:31:56;;;;;;;5.03;1.00;;;20.60;39.20;;;;;;5021787;28;20087;-66
2023/05/16 08:34:22;;;;;;;5.50;1.30;;;20.50;38.70;;;;;;5030044;28;20068;-66
2023/05/16 08:36:48;;;;;;;3.90;1.00;;;20.30;38.80;;;;;;5019005;28;20105;-66
2023/05/16 08:39:13;;;;;;;4.22;1.20;;;20.00;39.40;;;;;;5011820;28;20041;-66
2023/05/16 08:41:40;;;;;;;4.38;1.23;;;19.90;40.60;;;;;;5020896;28;20040;-66
2023/05/16 08:44:05;;;;;;;4.18;1.23;;;19.70;41.90;;;;;;5023017;28;20513;-66
2023/05/16 08:46:34;;;;;;;4.30;0.98;;;19.60;42.40;;;;;;5023229;28;20161;-66
2023/05/16 08:49:03;;;;;;;5.40;1.42;;;19.60;42.70;;;;;;5014980;28;20041;-66
2023/05/16 08:51:34;;;;;;;3.53;1.10;;;19.60;42.70;;;;;;5027700;28;20053;-66
2023/05/16 08:54:03;;;;;;;3.67;1.15;;;19.60;42.40;;;;;;5031553;28;20049;-66
2023/05/16 08:56:30;;;;;;;4.70;1.20;;;19.50;42.30;;;;;;5031384;28;20508;-66
2023/05/16 08:58:57;;;;;;;4.05;1.20;;;19.50;42.40;;;;;;5030939;28;20060;-66
2023/05/16 09:01:23;;;;;;;8.32;1.90;;;19.50;42.10;;;;;;5014632;28;20124;-66
2023/05/16 09:03:50;;;;;;;5.72;1.02;;;19.60;41.90;;;;;;5020371;28;20456;-66
2023/05/16 09:06:16;;;;;;;3.40;1.08;;;19.60;41.90;;;;;;5033300;28;20048;-66
2023/05/16 09:08:41;;;;;;;4.32;1.10;;;19.70;41.90;;;;;;5028701;28;20029;-66
2023/05/16 09:11:08;;;;;;;7.13;1.30;;;19.80;42.00;;;;;;5011890;28;20048;-66
2023/05/16 09:13:34;;;;;;;4.07;1.10;;;19.90;40.90;;;;;;5012685;28;20046;-66
2023/05/16 09:16:17;;;;;;;3.05;0.90;;;20.00;41.10;;;;;;5015419;28;20038;-66
2023/05/16 09:18:45;;;;;;;6.07;1.48;;;20.20;41.10;;;;;;5025610;28;20050;-66
2023/05/16 09:21:12;;;;;;;5.65;1.33;;;20.20;41.00;;;;;;5023246;28;20037;-66
2023/05/16 09:23:38;;;;;;;5.32;1.10;;;20.30;40.50;;;;;;5031127;28;20048;-66
2023/05/16 09:26:06;;;;;;;5.32;1.20;;;20.40;40.20;;;;;;5030860;28;20117;-66
2023/05/16 09:28:33;;;;;;;6.00;1.65;;;20.40;39.90;;;;;;5031136;28;20049;-66
2023/05/16 09:31:01;;;;;;;8.02;2.10;;;20.30;40.40;;;;;;5031086;28;20045;-66
2023/05/16 09:33:27;;;;;;;4.28;1.00;;;20.30;40.40;;;;;;5012589;28;20041;-66
2023/05/16 09:36:00;;;;;;;5.25;1.40;;;20.20;40.50;;;;;;5011128;28;20062;-66
2023/05/16 09:38:27;;;;;;;6.47;1.50;;;20.00;40.70;;;;;;5011420;28;20516;-66
2023/05/16 09:40:54;;;;;;;6.72;1.55;;;19.90;41.70;;;;;;5011238;28;20034;-66
2023/05/16 09:43:24;;;;;;;5.75;1.30;;;19.90;42.50;;;;;;5011534;28;20042;-66
2023/05/16 09:45:50;;;;;;;4.57;1.10;;;19.90;42.30;;;;;;5011187;28;20045;-66
2023/05/16 09:48:16;;;;;;;3.88;1.15;;;19.90;41.40;;;;;;5011536;28;20046;-66
2023/05/16 09:50:52;;;;;;;5.95;1.42;;;19.90;41.00;;;;;;4994792;28;20488;-66
2023/05/16 09:53:32;;;;;;;5.63;1.40;;;19.90;40.70;;;;;;5026286;28;20397;-66
2023/05/16 09:56:10;;;;;;;6.82;1.73;;;19.80;40.50;;;;;;5030842;28;20059;-65
2023/05/16 09:58:37;;;;;;;6.80;2.03;;;19.80;40.60;;;;;;5030828;28;20124;-65
2023/05/16 10:01:04;;;;;;;5.45;1.20;;;19.70;40.60;;;;;;5033880;28;20037;-65
2023/05/16 10:03:31;;;;;;;6.78;1.40;;;19.70;41.40;;;;;;5034322;28;20087;-65
2023/05/16 10:05:58;;;;;;;5.78;1.75;;;19.80;41.10;;;;;;5005733;28;20042;-65
2023/05/16 10:08:25;;;;;;;5.53;1.00;;;19.80;40.90;;;;;;5026979;28;20045;-65
2023/05/16 10:10:52;;;;;;;4.85;1.10;;;19.70;39.90;;;;;;5031200;28;20072;-66
2023/05/16 10:13:24;;;;;;;5.00;1.10;;;19.70;40.40;;;;;;5032619;28;20049;-66
2023/05/16 10:15:57;;;;;;;6.15;1.50;;;19.70;40.40;;;;;;5032527;28;20045;-66
2023/05/16 10:18:29;;;;;;;3.13;1.20;;;19.70;40.30;;;;;;5024870;28;20049;-66
2023/05/16 10:20:57;;;;;;;4.45;1.38;;;19.60;40.40;;;;;;5004346;28;20521;-66
2023/05/16 10:23:25;;;;;;;4.25;1.33;;;19.50;40.50;;;;;;5023928;28;20045;-65
2023/05/16 10:25:52;;;;;;;6.82;2.17;;;19.40;40.00;;;;;;5008059;28;20392;-65
2023/05/16 10:28:18;;;;;;;5.22;1.27;;;19.30;40.10;;;;;;5021304;28;20037;-65
2023/05/16 10:30:45;;;;;;;6.25;1.83;;;19.20;40.60;;;;;;5020995;28;20129;-65
2023/05/16 10:33:16;;;;;;;4.93;1.40;;;19.10;41.40;;;;;;5019116;28;20088;-65
2023/05/16 10:35:43;;;;;;;6.00;1.67;;;19.10;42.20;;;;;;5020159;28;20405;-65
2023/05/16 10:38:11;;;;;;;4.60;0.95;;;19.10;41.30;;;;;;5018917;28;20049;-66
2023/05/16 10:40:38;;;;;;;4.07;1.10;;;19.10;41.30;;;;;;5021503;28;20041;-65
2023/05/16 10:43:06;;;;;;;4.30;0.93;;;19.10;41.80;;;;;;5019620;28;20046;-66
2023/05/16 10:45:32;;;;;;;6.00;1.45;;;19.20;41.60;;;;;;5022779;28;20148;-66
2023/05/16 10:48:05;;;;;;;5.97;1.60;;;19.10;40.40;;;;;;5020526;28;20045;-66
2023/05/16 10:50:37;;;;;;;7.55;1.33;;;19.10;40.00;;;;;;5022007;28;20037;-66
2023/05/16 10:53:18;;;;;;;5.38;1.15;;;19.00;40.90;;;;;;5027698;28;20064;-65
2023/05/16 10:55:49;;;;;;;7.03;1.42;;;18.90;43.50;;;;;;5023988;28;20072;-65
2023/05/16 10:58:23;;;;;;;4.90;1.30;;;18.80;44.70;;;;;;5026055;28;20089;-66
2023/05/16 11:00:49;;;;;;;2.72;0.95;;;18.70;45.80;;;;;;5024860;28;20433;-66
2023/05/16 11:03:26;;;;;;;5.28;1.65;;;18.70;47.60;;;;;;5009365;28;20041;-65
2023/05/16 11:05:55;;;;;;;5.25;1.58;;;18.70;49.00;;;;;;5010647;28;20047;-66
2023/05/16 11:08:21;;;;;;;5.22;1.60;;;18.70;49.70;;;;;;5024671;28;20041;-66
2023/05/16 11:10:47;;;;;;;8.18;1.60;;;18.70;49.70;;;;;;5025302;28;20382;-66
2023/05/16 11:13:18;;;;;;;6.65;1.50;;;18.80;50.50;;;;;;5025198;28;20089;-66
2023/05/16 11:15:44;;;;;;;7.13;1.63;;;18.80;50.20;;;;;;5023886;28;20067;-65
2023/05/16 11:18:14;;;;;;;4.30;2.03;;;18.80;49.70;;;;;;5007711;28;20128;-65
2023/05/16 11:20:40;;;;;;;5.22;1.30;;;18.80;49.20;;;;;;5023519;28;20068;-66
2023/05/16 11:23:15;;;;;;;5.22;1.48;;;18.80;47.60;;;;;;5025438;28;20041;-66
2023/05/16 11:25:42;;;;;;;6.05;1.58;;;18.70;47.10;;;;;;5021392;28;20056;-66
2023/05/16 11:28:11;;;;;;;5.35;1.58;;;18.70;46.70;;;;;;5024584;28;20049;-66
2023/05/16 11:30:47;;;;;;;6.15;1.30;;;18.60;46.40;;;;;;5023284;28;20042;-65
2023/05/16 11:33:13;;;;;;;6.85;1.70;;;18.40;46.20;;;;;;5006892;28;20199;-65
2023/05/16 11:35:38;;;;;;;5.53;0.93;;;18.40;46.80;;;;;;5024005;28;20508;-66
2023/05/16 11:38:04;;;;;;;6.18;1.63;;;18.30;47.10;;;;;;5022387;28;20401;-66
2023/05/16 11:40:30;;;;;;;6.53;1.52;;;18.20;47.40;;;;;;5020993;28;20041;-66
2023/05/16 11:43:02;;;;;;;5.82;1.67;;;18.10;47.80;;;;;;5024291;28;20103;-66
2023/05/16 11:45:28;;;;;;;6.05;1.83;;;18.00;48.70;;;;;;5006737;28;20389;-66
2023/05/16 11:47:54;;;;;;;4.63;1.35;;;17.80;48.40;;;;;;5021250;28;20036;-66
2023/05/16 11:50:22;;;;;;;6.65;1.92;;;17.80;49.20;;;;;;5025870;28;20496;-66
2023/05/16 11:52:57;;;;;;;3.92;1.42;;;17.70;49.30;;;;;;5024511;28;20060;-66
2023/05/16 11:55:28;;;;;;;5.28;1.42;;;17.60;49.20;;;;;;5022073;28;20129;-66
2023/05/16 11:57:57;;;;;;;4.13;1.40;;;17.50;49.10;;;;;;5023056;28;20128;-66
2023/05/16 12:00:25;;;;;;;6.05;1.40;;;17.50;49.50;;;;;;5007681;28;20366;-67
2023/05/16 12:02:52;;;;;;;5.80;1.42;;;17.40;49.80;;;;;;5024647;28;20041;-66
2023/05/16 12:05:24;;;;;;;4.55;1.25;;;17.30;49.30;;;;;;5025816;28;20102;-66
2023/05/16 12:07:50;;;;;;;5.40;1.45;;;17.20;49.40;;;;;;5007211;28;20551;-66
2023/05/16 12:10:16;;;;;;;6.97;1.38;;;17.20;49.90;;;;;;5022922;28;20045;-66
2023/05/16 12:12:46;;;;;;;3.88;1.50;;;17.10;50.20;;;;;;5024069;28;20142;-66
2023/05/16 12:15:12;;;;;;;5.22;2.00;;;17.10;50.00;;;;;;5024249;28;20044;-66
2023/05/16 12:17:39;;;;;;;6.07;1.98;;;17.10;50.80;;;;;;5023588;28;20050;-66
2023/05/16 12:20:11;;;;;;;5.70;1.58;;;17.20;50.50;;;;;;5023070;28;20068;-66
2023/05/16 12:22:41;;;;;;;5.18;2.03;;;17.30;50.80;;;;;;5006663;28;20057;-66
2023/05/16 12:25:30;;;;;;;8.48;2.03;;;17.30;49.60;;;;;;5005864;28;20072;-66
2023/05/16 12:27:58;;;;;;;6.30;1.48;;;17.40;48.70;;;;;;5023153;28;20041;-66
2023/05/16 12:30:25;;;;;;;5.40;1.60;;;17.40;48.30;;;;;;5023634;28;20044;-66
2023/05/16 12:33:11;;;;;;;4.07;1.88;;;17.40;49.00;;;;;;5021925;28;20055;-66
2023/05/16 12:35:39;;;;;;;4.95;1.90;;;17.40;48.50;;;;;;5022649;28;20077;-66
2023/05/16 12:38:10;;;;;;;6.65;1.70;;;17.30;48.80;;;;;;5019880;28;20057;-66
2023/05/16 12:40:38;;;;;;;6.78;2.05;;;17.30;49.30;;;;;;5031751;28;20481;-66
2023/05/16 12:43:05;;;;;;;6.85;2.10;;;17.20;49.70;;;;;;5010996;28;20038;-66
2023/05/16 12:45:32;;;;;;;5.63;1.70;;;17.30;49.80;;;;;;5031412;28;20088;-66
2023/05/16 12:48:05;;;;;;;9.98;2.45;;;17.30;48.70;;;;;;5031030;28;20239;-66